Time;durP1;ratioP1;P1;durP2;ratioP2;P2;SDS_P1;SDS_P2;PMS_P1;PMS_P2;Temp;Humidity;BMP_temperature;BMP_pressure;BME280_temperature;BME280_humidity;BME280_pressure;Samples;Min_cycle;Max_cycle;Signal;HPM_P1;HPM_P2
2022/09/03 00:00:57;;;;;;;;;;;;;;;9.29;100.00;100943.66;3059024;19;968;-48
2022/09/03 00:02:26;;;;;;;;;;;;;;;9.29;100.00;100940.13;3058310;19;901;-47
2022/09/03 00:03:31;;;;;;;;;;;;;;;9.32;100.00;100937.28;3058367;19;1035;-47
2022/09/03 00:04:42;;;;;;;;;;;;;;;9.31;100.00;100935.56;3057767;19;1854;-46
2022/09/03 00:05:55;;;;;;;;;;;;;;;9.32;100.00;100938.16;3057779;19;1044;-48
2022/09/03 00:07:02;;;;;;;;;;;;;;;9.32;100.00;100940.81;3057481;19;1310;-48
2022/09/03 00:08:08;;;;;;;;;;;;;;;9.32;100.00;100937.28;3056857;19;865;-47
2022/09/03 00:09:24;;;;;;;;;;;;;;;9.31;100.00;100939.09;3057764;19;901;-47
2022/09/03 00:10:28;;;;;;;;;;;;;;;9.32;100.00;100940.81;3058945;19;943;-47
2022/09/03 00:11:33;;;;;;;;;;;;;;;9.30;100.00;100939.16;3059205;19;1745;-47
2022/09/03 00:12:36;;;;;;;;;;;;;;;9.29;100.00;100948.09;3057947;19;900;-47
2022/09/03 00:13:59;;;;;;;;;;;;;;;9.26;100.00;100948.25;3057686;19;956;-47
2022/09/03 00:15:08;;;;;;;;;;;;;;;9.22;100.00;100946.66;3057515;19;948;-47
2022/09/03 00:16:14;;;;;;;;;;;;;;;9.22;100.00;100946.66;3058778;19;925;-48
2022/09/03 00:17:21;;;;;;;;;;;;;;;9.23;100.00;100943.06;3057820;19;964;-46
2022/09/03 00:18:28;;;;;;;;;;;;;;;9.23;100.00;100940.41;3058098;19;937;-47
2022/09/03 00:19:31;;;;;;;;;;;;;;;9.20;100.00;100943.22;3057751;19;1051;-48
2022/09/03 00:20:38;;;;;;;;;;;;;;;9.19;100.00;100942.34;3057550;19;1323;-47
2022/09/03 00:21:43;;;;;;;;;;;;;;;9.20;100.00;100948.53;3057653;19;965;-46
2022/09/03 00:22:51;;;;;;;;;;;;;;;9.19;100.00;100941.47;3057886;19;1787;-47
2022/09/03 00:23:53;;;;;;;;;;;;;;;9.16;100.00;100942.50;3057685;19;1001;-48
2022/09/03 00:24:59;;;;;;;;;;;;;;;9.15;100.00;100940.78;3057579;19;1864;-48
2022/09/03 00:26:13;;;;;;;;;;;;;;;9.16;100.00;100931.00;3057923;19;1650;-47
2022/09/03 00:27:18;;;;;;;;;;;;;;;9.16;100.00;100936.31;3057817;19;967;-47
2022/09/03 00:28:25;;;;;;;;;;;;;;;9.16;100.00;100936.31;3058088;19;959;-46
2022/09/03 00:29:28;;;;;;;;;;;;;;;9.14;100.00;100940.84;3059293;19;944;-47
2022/09/03 00:30:32;;;;;;;;;;;;;;;9.12;100.00;100934.75;3058084;19;889;-48
2022/09/03 00:31:36;;;;;;;;;;;;;;;9.11;100.00;100935.66;3057593;19;925;-48
2022/09/03 00:32:40;;;;;;;;;;;;;;;9.02;100.00;100924.53;3057824;19;1191;-47
2022/09/03 00:33:43;;;;;;;;;;;;;;;9.11;100.00;100927.69;3058383;19;863;-47
2022/09/03 00:34:49;;;;;;;;;;;;;;;9.09;100.00;100935.75;3058164;19;988;-48
2022/09/03 00:36:00;;;;;;;;;;;;;;;9.08;100.00;100927.81;3058602;19;881;-48
2022/09/03 00:37:05;;;;;;;;;;;;;;;9.07;100.00;100926.09;3058793;19;900;-48
2022/09/03 00:38:17;;;;;;;;;;;;;;;9.08;100.00;100936.69;3058164;19;1039;-47
2022/09/03 00:39:21;;;;;;;;;;;;;;;9.08;100.00;100933.16;3058422;19;1004;-47
2022/09/03 00:40:44;;;;;;;;;;;;;;;9.06;100.00;100935.06;3057364;19;964;-48
2022/09/03 00:41:56;;;;;;;;;;;;;;;9.09;100.00;100929.56;3057610;19;960;-48
2022/09/03 00:43:01;;;;;;;;;;;;;;;9.08;100.00;100923.38;3058281;19;949;-47
2022/09/03 00:44:21;;;;;;;;;;;;;;;9.08;100.00;100922.50;3057209;19;1299;-48
2022/09/03 00:45:32;;;;;;;;;;;;;;;9.09;100.00;100929.56;3057409;19;1846;-47
2022/09/03 00:46:40;;;;;;;;;;;;;;;9.09;100.00;100937.53;3058279;19;896;-47
2022/09/03 00:47:45;;;;;;;;;;;;;;;9.09;100.00;100924.22;3057025;19;865;-47
2022/09/03 00:48:54;;;;;;;;;;;;;;;9.07;100.00;100928.75;3057147;19;995;-47
2022/09/03 00:50:03;;;;;;;;;;;;;;;9.08;100.00;100935.81;3058207;19;991;-47
2022/09/03 00:51:26;;;;;;;;;;;;;;;9.08;100.00;100927.81;3058270;19;1355;-47
2022/09/03 00:52:34;;;;;;;;;;;;;;;9.05;100.00;100936.84;3058268;19;937;-48
2022/09/03 00:53:41;;;;;;;;;;;;;;;9.05;100.00;100938.66;3058695;19;872;-48
2022/09/03 00:55:12;;;;;;;;;;;;;;;9.04;100.00;100935.13;3058239;19;908;-46
2022/09/03 00:56:23;;;;;;;;;;;;;;;9.01;100.00;100943.25;3057099;19;1461;-47
2022/09/03 00:57:43;;;;;;;;;;;;;;;8.99;100.00;100948.63;3058204;19;1024;-48
2022/09/03 00:59:00;;;;;;;;;;;;;;;9.02;100.00;100939.66;3057978;19;941;-49
2022/09/03 01:00:02;;;;;;;;;;;;;;;8.98;100.00;100944.25;3058163;19;917;-47
2022/09/03 01:01:10;;;;;;;;;;;;;;;8.97;100.00;100942.53;3058160;19;929;-47
2022/09/03 01:02:16;;;;;;;;;;;;;;;8.98;100.00;100941.59;3057040;19;1011;-46
2022/09/03 01:03:30;;;;;;;;;;;;;;;8.98;100.00;100954.91;3057152;19;786;-47
2022/09/03 01:04:34;;;;;;;;;;;;;;;8.98;100.00;100938.91;3057774;19;916;-47
2022/09/03 01:05:50;;;;;;;;;;;;;;;8.98;100.00;100946.91;3056777;19;1868;-46
2022/09/03 01:06:57;;;;;;;;;;;;;;;8.98;100.00;100949.56;3056974;19;2108;-46
2022/09/03 01:08:08;;;;;;;;;;;;;;;8.95;100.00;100955.03;3057149;19;968;-47
2022/09/03 01:09:47;;;;;;;;;;;;;;;8.91;100.00;100948.16;3057169;19;1628;-47
2022/09/03 01:10:55;;;;;;;;;;;;;;;8.92;100.00;100952.53;3056409;19;1492;-48
2022/09/03 01:12:00;;;;;;;;;;;;;;;8.92;100.00;100952.53;3056953;19;1070;-48
2022/09/03 01:13:05;;;;;;;;;;;;;;;8.91;100.00;100958.78;3057199;19;881;-47
2022/09/03 01:14:17;;;;;;;;;;;;;;;8.89;100.00;100952.69;3058295;19;1228;-47
2022/09/03 01:15:40;;;;;;;;;;;;;;;8.89;100.00;100949.16;3057103;19;889;-48
2022/09/03 01:16:48;;;;;;;;;;;;;;;8.86;100.00;100950.16;3057296;19;988;-46
2022/09/03 01:17:52;;;;;;;;;;;;;;;8.83;100.00;100950.28;3056364;19;1015;-47
2022/09/03 01:19:01;;;;;;;;;;;;;;;8.82;100.00;100943.25;3057120;19;872;-48
2022/09/03 01:20:24;;;;;;;;;;;;;;;8.80;100.00;100941.59;3056698;19;980;-48
2022/09/03 01:21:26;;;;;;;;;;;;;;;8.77;100.00;100939.09;3057048;19;965;-47
2022/09/03 01:22:39;;;;;;;;;;;;;;;8.73;100.00;100935.69;3058073;19;881;-48
2022/09/03 01:24:00;;;;;;;;;;;;;;;8.71;100.00;100940.22;3057060;19;821;-48
2022/09/03 01:25:09;;;;;;;;;;;;;;;8.64;100.00;100944.13;3057326;19;932;-47
2022/09/03 01:26:30;;;;;;;;;;;;;;;8.64;100.00;100944.13;3057002;19;1857;-46
2022/09/03 01:27:32;;;;;;;;;;;;;;;8.60;100.00;100938.06;3056956;19;861;-47
2022/09/03 01:28:45;;;;;;;;;;;;;;;8.59;100.00;100936.34;3056809;19;921;-47
2022/09/03 01:29:54;;;;;;;;;;;;;;;8.57;100.00;100948.00;3057692;19;928;-48
2022/09/03 01:31:00;;;;;;;;;;;;;;;8.54;100.00;100934.84;3057769;19;960;-47
2022/09/03 01:32:06;;;;;;;;;;;;;;;8.52;100.00;100931.38;3056584;19;1032;-48
2022/09/03 01:33:13;;;;;;;;;;;;;;;8.51;100.00;100934.97;3056577;19;1112;-48
2022/09/03 01:34:33;;;;;;;;;;;;;;;8.49;100.00;100926.19;3056759;19;1047;-47
2022/09/03 01:35:40;;;;;;;;;;;;;;;8.49;100.00;100923.53;3057027;19;948;-48
2022/09/03 01:36:51;;;;;;;;;;;;;;;8.46;100.00;100934.31;3057552;19;948;-50
2022/09/03 01:38:03;;;;;;;;;;;;;;;8.43;100.00;100927.34;3056741;19;1053;-46
2022/09/03 01:39:05;;;;;;;;;;;;;;;8.42;100.00;100927.41;3056806;19;980;-47
2022/09/03 01:40:36;;;;;;;;;;;;;;;8.41;100.00;100925.69;3056559;19;1139;-47
2022/09/03 01:43:19;;;;;;;;;;;;;;;8.43;100.00;100931.81;3056768;19;900;-47
2022/09/03 01:44:38;;;;;;;;;;;;;;;8.43;100.00;100923.81;3056838;19;1031;-48
2022/09/03 01:45:50;;;;;;;;;;;;;;;8.40;100.00;100924.81;3057110;19;889;-48
2022/09/03 01:46:57;;;;;;;;;;;;;;;8.39;100.00;100924.88;3056275;19;892;-48
2022/09/03 01:48:16;;;;;;;;;;;;;;;8.38;100.00;100924.03;3057324;19;999;-47
2022/09/03 01:49:21;;;;;;;;;;;;;;;8.37;100.00;100918.78;3056443;19;1050;-48
2022/09/03 01:50:28;;;;;;;;;;;;;;;8.33;100.00;100918.06;3056886;19;968;-48
2022/09/03 01:51:30;;;;;;;;;;;;;;;8.32;100.00;100912.81;3056624;19;1698;-49
2022/09/03 01:52:44;;;;;;;;;;;;;;;8.32;100.00;100918.13;3056631;19;960;-48
2022/09/03 01:53:53;;;;;;;;;;;;;;;8.30;100.00;100919.03;3056594;19;948;-48
2022/09/03 01:55:08;;;;;;;;;;;;;;;8.32;100.00;100915.47;3056547;19;869;-47
2022/09/03 01:56:16;;;;;;;;;;;;;;;8.24;100.00;100902.47;3056860;19;906;-48
2022/09/03 01:57:40;;;;;;;;;;;;;;;8.30;100.00;100913.72;3056930;19;948;-48
2022/09/03 01:58:53;;;;;;;;;;;;;;;8.30;100.00;100908.41;3057247;19;1067;-48
2022/09/03 02:00:00;;;;;;;;;;;;;;;8.31;100.00;100909.25;3055102;19;983;-48
2022/09/03 02:01:14;;;;;;;;;;;;;;;8.32;100.00;100910.16;3056530;19;927;-48
2022/09/03 02:02:25;;;;;;;;;;;;;;;8.32;100.00;100910.16;3056321;19;992;-47
2022/09/03 02:03:35;;;;;;;;;;;;;;;8.29;100.00;100909.31;3056502;19;1126;-47
2022/09/03 02:04:42;;;;;;;;;;;;;;;8.28;100.00;100910.25;3056731;19;1161;-47
2022/09/03 02:05:46;;;;;;;;;;;;;;;8.26;100.00;100906.78;3056520;19;936;-48
2022/09/03 02:06:49;;;;;;;;;;;;;;;8.27;100.00;100908.53;3056151;19;1859;-49
2022/09/03 02:07:56;;;;;;;;;;;;;;;8.26;100.00;100901.47;3057281;19;900;-47
2022/09/03 02:08:58;;;;;;;;;;;;;;;8.24;100.00;100903.34;3057170;19;985;-48
2022/09/03 02:10:04;;;;;;;;;;;;;;;8.23;100.00;100901.63;3057062;19;1021;-47
2022/09/03 02:11:06;;;;;;;;;;;;;;;8.20;100.00;100907.09;3057440;19;797;-47
2022/09/03 02:12:12;;;;;;;;;;;;;;;8.22;100.00;100901.69;3056338;19;1042;-47
2022/09/03 02:13:18;;;;;;;;;;;;;;;8.23;100.00;100901.63;3056425;19;877;-47
2022/09/03 02:14:20;;;;;;;;;;;;;;;8.23;100.00;100906.94;3056390;19;964;-47
2022/09/03 02:15:24;;;;;;;;;;;;;;;8.22;100.00;100899.88;3057665;19;904;-47
2022/09/03 02:16:28;;;;;;;;;;;;;;;8.23;100.00;100896.28;3055967;19;865;-48
2022/09/03 02:17:33;;;;;;;;;;;;;;;8.26;100.00;100890.84;3056321;19;933;-48
2022/09/03 02:18:36;;;;;;;;;;;;;;;8.25;100.00;100889.13;3056116;19;1000;-47
2022/09/03 02:19:41;;;;;;;;;;;;;;;8.26;100.00;100885.53;3056257;19;961;-48
2022/09/03 02:20:42;;;;;;;;;;;;;;;8.26;100.00;100885.53;3056396;19;782;-47
2022/09/03 02:21:57;;;;;;;;;;;;;;;8.27;100.00;100886.41;3056569;19;952;-48
2022/09/03 02:22:59;;;;;;;;;;;;;;;8.25;100.00;100886.47;3056285;19;909;-47
2022/09/03 02:24:05;;;;;;;;;;;;;;;8.26;100.00;100882.88;3056080;19;972;-46
2022/09/03 02:25:07;;;;;;;;;;;;;;;8.27;100.00;100879.28;3056265;19;944;-47
2022/09/03 02:26:12;;;;;;;;;;;;;;;8.29;100.00;100887.19;3056051;19;1670;-48
2022/09/03 02:27:13;;;;;;;;;;;;;;;8.27;100.00;100887.25;3055512;19;1849;-47
2022/09/03 02:28:18;;;;;;;;;;;;;;;8.28;100.00;100890.78;3055898;19;1023;-47
2022/09/03 02:29:20;;;;;;;;;;;;;;;8.28;100.00;100893.44;3056479;19;956;-47
2022/09/03 02:30:24;;;;;;;;;;;;;;;8.28;100.00;100888.97;3056578;19;863;-48
2022/09/03 02:31:27;;;;;;;;;;;;;;;8.29;100.00;100895.16;3057072;19;647;-48
2022/09/03 02:32:32;;;;;;;;;;;;;;;8.29;100.00;100901.34;3056899;19;877;-48
2022/09/03 02:33:35;;;;;;;;;;;;;;;8.30;100.00;100895.09;3057073;19;1007;-46
2022/09/03 02:34:40;;;;;;;;;;;;;;;8.30;100.00;100892.44;3056056;19;893;-47
2022/09/03 02:35:42;;;;;;;;;;;;;;;8.30;100.00;100892.44;3056188;19;964;-48
2022/09/03 02:36:47;;;;;;;;;;;;;;;8.30;100.00;100881.81;3055966;19;1031;-47
2022/09/03 02:37:49;;;;;;;;;;;;;;;8.30;100.00;100889.78;3056927;19;1412;-48
2022/09/03 02:38:53;;;;;;;;;;;;;;;8.30;100.00;100889.78;3056742;19;955;-47
2022/09/03 02:39:56;;;;;;;;;;;;;;;8.27;100.00;100889.91;3057129;19;888;-49
2022/09/03 02:41:00;;;;;;;;;;;;;;;8.27;100.00;100889.06;3056643;19;1286;-48
2022/09/03 02:42:02;;;;;;;;;;;;;;;8.31;100.00;100890.66;3057004;19;1048;-48
2022/09/03 02:43:07;;;;;;;;;;;;;;;8.32;100.00;100892.41;3056878;19;983;-47
2022/09/03 02:44:12;;;;;;;;;;;;;;;8.29;100.00;100896.03;3056006;19;1035;-49
2022/09/03 02:45:23;;;;;;;;;;;;;;;8.30;100.00;100887.13;3055583;19;1024;-48
2022/09/03 02:46:32;;;;;;;;;;;;;;;8.32;100.00;100888.88;3056954;19;917;-47
2022/09/03 02:47:33;;;;;;;;;;;;;;;8.28;100.00;100891.63;3054858;19;1897;-47
2022/09/03 02:48:38;;;;;;;;;;;;;;;8.27;100.00;100891.72;3055967;19;1027;-48
2022/09/03 02:49:40;;;;;;;;;;;;;;;8.25;100.00;100890.91;3055796;19;961;-47
2022/09/03 02:50:44;;;;;;;;;;;;;;;8.28;100.00;100888.13;3056698;19;928;-47
2022/09/03 02:51:46;;;;;;;;;;;;;;;8.28;100.00;100894.31;3056573;19;964;-47
2022/09/03 02:52:51;;;;;;;;;;;;;;;8.28;100.00;100888.97;3057001;19;926;-47
2022/09/03 02:53:52;;;;;;;;;;;;;;;8.29;100.00;100901.34;3056423;19;913;-46
2022/09/03 02:55:05;;;;;;;;;;;;;;;8.23;100.00;100876.81;3039279;19;2021;-49
2022/09/03 02:56:07;;;;;;;;;;;;;;;8.28;100.00;100893.44;3053983;19;1645;-47
2022/09/03 02:57:12;;;;;;;;;;;;;;;8.26;100.00;100901.47;3054215;19;1681;-47
2022/09/03 02:58:14;;;;;;;;;;;;;;;8.25;100.00;100894.44;3057228;19;948;-47
2022/09/03 02:59:21;;;;;;;;;;;;;;;8.22;100.00;100889.25;3056118;19;1067;-48
2022/09/03 03:00:23;;;;;;;;;;;;;;;8.20;100.00;100896.47;3056567;19;956;-46
2022/09/03 03:01:27;;;;;;;;;;;;;;;8.20;100.00;100891.13;3056401;19;961;-48
2022/09/03 03:02:33;;;;;;;;;;;;;;;8.17;100.00;100891.28;3056506;19;880;-48
2022/09/03 03:03:37;;;;;;;;;;;;;;;8.18;100.00;100898.31;3056255;19;1058;-47
2022/09/03 03:04:39;;;;;;;;;;;;;;;8.17;100.00;100896.59;3056088;19;1000;-48
2022/09/03 03:05:46;;;;;;;;;;;;;;;8.16;100.00;100889.53;3055629;19;1019;-46
2022/09/03 03:06:49;;;;;;;;;;;;;;;8.16;100.00;100894.84;3055339;19;889;-48
2022/09/03 03:07:55;;;;;;;;;;;;;;;8.16;100.00;100896.66;3054885;19;1850;-48
2022/09/03 03:09:00;;;;;;;;;;;;;;;8.14;100.00;100896.72;3056027;19;1015;-48
2022/09/03 03:10:05;;;;;;;;;;;;;;;8.13;100.00;100892.34;3056265;19;1325;-49
2022/09/03 03:11:07;;;;;;;;;;;;;;;8.12;100.00;100900.38;3058093;19;968;-48
2022/09/03 03:12:11;;;;;;;;;;;;;;;8.07;100.00;100895.28;3059573;19;1680;-46
2022/09/03 03:13:13;;;;;;;;;;;;;;;8.06;100.00;100896.22;3059374;19;979;-48
2022/09/03 03:14:17;;;;;;;;;;;;;;;8.04;100.00;100905.19;3059570;19;951;-48
2022/09/03 03:15:19;;;;;;;;;;;;;;;8.03;100.00;100911.41;3059308;19;861;-48
2022/09/03 03:16:24;;;;;;;;;;;;;;;8.00;100.00;100909.75;3059481;19;870;-48
2022/09/03 03:17:26;;;;;;;;;;;;;;;7.96;100.00;100902.88;3059220;19;960;-47
2022/09/03 03:18:31;;;;;;;;;;;;;;;7.97;100.00;100904.56;3059453;19;1180;-47
2022/09/03 03:19:33;;;;;;;;;;;;;;;7.96;100.00;100908.19;3059284;19;1318;-48
2022/09/03 03:20:37;;;;;;;;;;;;;;;7.95;100.00;100902.00;3059296;19;1028;-47
2022/09/03 03:21:41;;;;;;;;;;;;;;;7.92;100.00;100904.78;3059321;19;857;-48
2022/09/03 03:22:43;;;;;;;;;;;;;;;7.94;100.00;100904.72;3059187;19;1016;-47
2022/09/03 03:23:47;;;;;;;;;;;;;;;7.92;100.00;100895.94;3059124;19;1079;-47
2022/09/03 03:24:49;;;;;;;;;;;;;;;7.92;100.00;100895.94;3059082;19;1149;-48
2022/09/03 03:25:54;;;;;;;;;;;;;;;7.91;100.00;100902.19;3059013;19;880;-48
2022/09/03 03:26:56;;;;;;;;;;;;;;;7.92;100.00;100898.59;3059003;19;1031;-47
2022/09/03 03:28:02;;;;;;;;;;;;;;;7.92;100.00;100902.13;3058451;19;1856;-48
2022/09/03 03:29:04;;;;;;;;;;;;;;;7.91;100.00;100902.19;3059268;19;956;-48
2022/09/03 03:30:09;;;;;;;;;;;;;;;7.91;100.00;100904.84;3058728;19;999;-48
2022/09/03 03:31:12;;;;;;;;;;;;;;;7.89;100.00;100906.72;3059196;19;1228;-46
2022/09/03 03:32:16;;;;;;;;;;;;;;;7.87;100.00;100903.25;3058980;19;1680;-47
2022/09/03 03:33:18;;;;;;;;;;;;;;;7.88;100.00;100911.16;3059312;19;929;-48
2022/09/03 03:34:25;;;;;;;;;;;;;;;7.89;100.00;100906.72;3058824;19;980;-46
2022/09/03 03:35:27;;;;;;;;;;;;;;;7.89;100.00;100902.25;3059174;19;973;-47
2022/09/03 03:36:32;;;;;;;;;;;;;;;7.90;100.00;100903.13;3058848;19;1035;-47
2022/09/03 03:37:34;;;;;;;;;;;;;;;7.92;100.00;100909.25;3059133;19;941;-47
2022/09/03 03:38:39;;;;;;;;;;;;;;;7.91;100.00;100910.16;3058735;19;989;-48
2022/09/03 03:39:43;;;;;;;;;;;;;;;7.90;100.00;100911.09;3059181;19;908;-46
2022/09/03 03:40:45;;;;;;;;;;;;;;;7.90;100.00;100908.44;3058965;19;968;-47
2022/09/03 03:41:51;;;;;;;;;;;;;;;7.90;100.00;100903.13;3059008;19;1035;-46
2022/09/03 03:42:53;;;;;;;;;;;;;;;7.89;100.00;100906.72;3058542;19;1025;-48
2022/09/03 03:43:58;;;;;;;;;;;;;;;7.89;100.00;100906.72;3059239;19;854;-47
2022/09/03 03:45:01;;;;;;;;;;;;;;;7.90;100.00;100908.44;3058859;19;988;-47
2022/09/03 03:46:06;;;;;;;;;;;;;;;7.89;100.00;100912.03;3058883;19;968;-48
2022/09/03 03:47:08;;;;;;;;;;;;;;;7.89;100.00;100917.34;3058889;19;944;-47
2022/09/03 03:48:12;;;;;;;;;;;;;;;7.88;100.00;100913.81;3058440;19;1847;-48
2022/09/03 03:49:14;;;;;;;;;;;;;;;7.86;100.00;100912.16;3057821;19;1008;-47
2022/09/03 03:50:19;;;;;;;;;;;;;;;7.85;100.00;100919.25;3058400;19;838;-48
2022/09/03 03:51:21;;;;;;;;;;;;;;;7.84;100.00;100917.56;3058597;19;962;-47
2022/09/03 03:52:26;;;;;;;;;;;;;;;7.84;100.00;100914.03;3059050;19;889;-47
2022/09/03 03:53:28;;;;;;;;;;;;;;;7.83;100.00;100917.63;3058765;19;1003;-47
2022/09/03 03:54:32;;;;;;;;;;;;;;;7.83;100.00;100909.66;3058972;19;951;-46
2022/09/03 03:55:35;;;;;;;;;;;;;;;7.81;100.00;100907.06;3058145;19;1131;-46
2022/09/03 03:56:39;;;;;;;;;;;;;;;7.82;100.00;100921.19;3059052;19;1309;-47
2022/09/03 03:57:41;;;;;;;;;;;;;;;7.82;100.00;100915.88;3058781;19;971;-48
2022/09/03 03:58:47;;;;;;;;;;;;;;;7.81;100.00;100915.03;3058943;19;885;-47
2022/09/03 03:59:49;;;;;;;;;;;;;;;7.81;100.00;100914.16;3058656;19;1047;-48
2022/09/03 04:00:54;;;;;;;;;;;;;;;7.81;100.00;100915.03;3058798;19;849;-49
2022/09/03 04:01:58;;;;;;;;;;;;;;;7.80;100.00;100918.59;3058733;19;948;-48
2022/09/03 04:03:00;;;;;;;;;;;;;;;7.81;100.00;100919.47;3058782;19;908;-47
2022/09/03 04:04:05;;;;;;;;;;;;;;;7.81;100.00;100914.16;3058631;19;964;-47
2022/09/03 04:05:07;;;;;;;;;;;;;;;7.82;100.00;100910.56;3058448;19;956;-48
2022/09/03 04:06:13;;;;;;;;;;;;;;;7.84;100.00;100911.38;3058699;19;880;-47
2022/09/03 04:07:15;;;;;;;;;;;;;;;7.85;100.00;100911.28;3057376;19;1556;-47
2022/09/03 04:08:19;;;;;;;;;;;;;;;7.86;100.00;100910.34;3054567;19;1851;-47
2022/09/03 04:09:21;;;;;;;;;;;;;;;7.87;100.00;100913.88;3058164;19;1354;-47
2022/09/03 04:10:26;;;;;;;;;;;;;;;7.87;100.00;100913.88;3058731;19;822;-46
2022/09/03 04:11:27;;;;;;;;;;;;;;;7.91;100.00;100915.47;3058517;19;932;-47
2022/09/03 04:12:32;;;;;;;;;;;;;;;7.92;100.00;100917.22;3058205;19;1219;-48
2022/09/03 04:13:38;;;;;;;;;;;;;;;8.06;100.00;100920.13;3058453;19;867;-48
2022/09/03 04:14:42;;;;;;;;;;;;;;;8.59;100.00;100925.69;3058055;19;921;-48
2022/09/03 04:15:44;;;;;;;;;;;;;;;9.28;100.00;100925.06;3058272;19;880;-46
2022/09/03 04:16:49;;;;;;;;;;;;;;;9.81;100.00;100930.34;3058648;19;1693;-47
2022/09/03 04:17:53;;;;;;;;;;;;;;;10.27;100.00;100944.84;3058448;19;877;-48
2022/09/03 04:18:58;;;;;;;;;;;;;;;10.64;100.00;100958.88;3058289;19;1628;-47
2022/09/03 04:20:00;;;;;;;;;;;;;;;10.94;100.00;100967.91;3058481;19;897;-47
2022/09/03 04:21:05;;;;;;;;;;;;;;;11.22;100.00;100972.56;3058156;19;1044;-48
2022/09/03 04:22:07;;;;;;;;;;;;;;;11.46;100.00;100986.34;3057799;19;903;-47
2022/09/03 04:23:12;;;;;;;;;;;;;;;11.64;100.00;100995.09;3057643;19;944;-47
2022/09/03 04:24:16;;;;;;;;;;;;;;;11.79;100.00;101005.81;3058311;19;1043;-47
2022/09/03 04:25:18;;;;;;;;;;;;;;;11.93;100.00;101006.81;3058328;19;988;-47
2022/09/03 04:26:24;;;;;;;;;;;;;;;12.05;100.00;101011.44;3057752;19;1149;-46
2022/09/03 04:27:25;;;;;;;;;;;;;;;12.10;100.00;101017.34;3058306;19;1032;-47
2022/09/03 04:28:30;;;;;;;;;;;;;;;12.10;100.00;101020.03;3057796;19;1859;-47
2022/09/03 04:29:32;;;;;;;;;;;;;;;12.01;100.00;101017.91;3058309;19;937;-49
2022/09/03 04:30:36;;;;;;;;;;;;;;;11.87;100.00;101022.25;3058306;19;1693;-48
2022/09/03 04:32:51;;;;;;;;;;;;;;;11.67;100.00;101017.16;3058394;19;953;-47
2022/09/03 04:33:03;;;;;;;;;;;;;;;11.26;100.00;101021.31;3058135;19;1850;-48
2022/09/03 04:34:05;;;;;;;;;;;;;;;10.99;100.00;101024.56;3058308;19;1031;-47
2022/09/03 04:35:10;;;;;;;;;;;;;;;10.83;100.00;101018.34;3058119;19;1667;-46
2022/09/03 04:36:12;;;;;;;;;;;;;;;10.73;100.00;101022.47;3059204;19;953;-48
2022/09/03 04:37:18;;;;;;;;;;;;;;;10.65;100.00;101019.31;3057615;19;1792;-47
2022/09/03 04:38:20;;;;;;;;;;;;;;;10.58;100.00;101013.47;3058346;19;940;-48
2022/09/03 04:39:24;;;;;;;;;;;;;;;10.54;100.00;101011.03;3057861;19;1705;-47
2022/09/03 04:40:26;;;;;;;;;;;;;;;10.51;100.00;101013.84;3058201;19;1431;-48
2022/09/03 04:41:31;;;;;;;;;;;;;;;10.46;100.00;101012.31;3058038;19;908;-47
2022/09/03 04:42:33;;;;;;;;;;;;;;;10.40;100.00;101007.28;3058421;19;825;-47
2022/09/03 04:43:38;;;;;;;;;;;;;;;10.35;100.00;101012.00;3058242;19;963;-46
2022/09/03 04:44:40;;;;;;;;;;;;;;;10.29;100.00;101012.31;3058232;19;915;-47
2022/09/03 04:45:45;;;;;;;;;;;;;;;10.17;100.00;100996.91;3058336;19;1757;-48
2022/09/03 04:46:47;;;;;;;;;;;;;;;10.19;100.00;101005.75;3058454;19;856;-47
2022/09/03 04:48:01;;;;;;;;;;;;;;;10.05;100.00;100990.41;3057956;19;1612;-47
2022/09/03 04:49:03;;;;;;;;;;;;;;;10.06;100.00;101009.94;3057390;19;1855;-48
2022/09/03 04:50:07;;;;;;;;;;;;;;;9.99;100.00;101003.22;3059249;19;1671;-48
2022/09/03 04:51:12;;;;;;;;;;;;;;;9.93;100.00;101003.50;3057825;19;924;-48
2022/09/03 04:52:16;;;;;;;;;;;;;;;9.89;100.00;100991.28;3057915;19;869;-47
2022/09/03 04:53:18;;;;;;;;;;;;;;;9.89;100.00;100996.63;3057640;19;1111;-47
2022/09/03 04:54:22;;;;;;;;;;;;;;;9.84;100.00;100993.31;3057932;19;883;-48
2022/09/03 04:55:34;;;;;;;;;;;;;;;9.80;100.00;100991.72;3057636;19;1323;-46
2022/09/03 04:56:38;;;;;;;;;;;;;;;9.81;100.00;100990.78;3058056;19;1071;-46
2022/09/03 04:57:41;;;;;;;;;;;;;;;9.79;100.00;100995.34;3057608;19;1052;-47
2022/09/03 04:58:46;;;;;;;;;;;;;;;9.78;100.00;100986.47;3057936;19;1673;-48
2022/09/03 04:59:51;;;;;;;;;;;;;;;9.80;100.00;100986.41;3057949;19;924;-48
2022/09/03 05:00:56;;;;;;;;;;;;;;;9.78;100.00;100989.13;3057886;19;1686;-48
2022/09/03 05:01:58;;;;;;;;;;;;;;;9.77;100.00;100987.44;3057916;19;1026;-48
2022/09/03 05:03:03;;;;;;;;;;;;;;;9.73;100.00;100991.19;3057607;19;829;-50
2022/09/03 05:04:08;;;;;;;;;;;;;;;9.77;100.00;100991.91;3057914;19;994;-47
2022/09/03 05:05:10;;;;;;;;;;;;;;;9.82;100.00;100995.19;3058079;19;865;-47
2022/09/03 05:06:15;;;;;;;;;;;;;;;9.85;100.00;100995.03;3057548;19;973;-49
2022/09/03 05:07:20;;;;;;;;;;;;;;;9.89;100.00;100996.63;3057881;19;948;-48
2022/09/03 05:08:22;;;;;;;;;;;;;;;9.94;100.00;100997.25;3057877;19;959;-47
2022/09/03 05:09:27;;;;;;;;;;;;;;;9.98;100.00;101002.34;3057166;19;1847;-48
2022/09/03 05:10:30;;;;;;;;;;;;;;;10.01;100.00;100998.66;3057666;19;960;-47
2022/09/03 05:11:35;;;;;;;;;;;;;;;10.05;100.00;101003.75;3057757;19;841;-46
2022/09/03 05:12:37;;;;;;;;;;;;;;;10.07;100.00;100998.34;3057684;19;952;-48
2022/09/03 05:13:41;;;;;;;;;;;;;;;10.09;100.00;100997.31;3057868;19;905;-48
2022/09/03 05:14:43;;;;;;;;;;;;;;;10.14;100.00;101005.09;3056881;19;952;-48
2022/09/03 05:15:47;;;;;;;;;;;;;;;10.16;100.00;100997.84;3056754;19;1614;-47
2022/09/03 05:16:49;;;;;;;;;;;;;;;10.17;100.00;100999.59;3057734;19;916;-47
2022/09/03 05:18:00;;;;;;;;;;;;;;;10.24;100.00;101010.84;3057911;19;1003;-47
2022/09/03 05:19:04;;;;;;;;;;;;;;;10.31;100.00;101005.09;3057797;19;1319;-48
2022/09/03 05:20:09;;;;;;;;;;;;;;;10.32;100.00;101006.84;3056246;19;1845;-49
2022/09/03 05:21:15;;;;;;;;;;;;;;;10.35;100.00;101004.00;3057216;19;1486;-47
2022/09/03 05:22:20;;;;;;;;;;;;;;;10.32;100.00;101009.50;3057747;19;928;-49
2022/09/03 05:23:25;;;;;;;;;;;;;;;10.39;100.00;101008.22;3057744;19;1705;-49
2022/09/03 05:24:29;;;;;;;;;;;;;;;10.45;100.00;101007.06;3057424;19;845;-46
2022/09/03 05:25:31;;;;;;;;;;;;;;;10.48;100.00;101011.38;3057944;19;944;-48
2022/09/03 05:26:38;;;;;;;;;;;;;;;10.55;100.00;101023.44;3057642;19;1120;-47
2022/09/03 05:27:40;;;;;;;;;;;;;;;10.56;100.00;101023.34;3057720;19;1086;-47
2022/09/03 05:28:45;;;;;;;;;;;;;;;10.64;100.00;101022.94;3057403;19;1709;-48
2022/09/03 05:29:47;;;;;;;;;;;;;;;10.68;100.00;101013.84;3057376;19;1856;-47
2022/09/03 05:31:01;;;;;;;;;;;;;;;10.72;100.00;101023.41;3057342;19;1642;-47
2022/09/03 05:32:03;;;;;;;;;;;;;;;10.75;100.00;101015.22;3057923;19;873;-48
2022/09/03 05:33:08;;;;;;;;;;;;;;;10.76;100.00;101016.94;3057622;19;921;-47
2022/09/03 05:34:10;;;;;;;;;;;;;;;10.77;100.00;101026.69;3055966;19;841;-47
2022/09/03 05:35:21;;;;;;;;;;;;;;;10.86;100.00;101028.00;3056797;19;1194;-48
2022/09/03 05:36:28;;;;;;;;;;;;;;;10.91;100.00;101029.47;3057642;19;992;-47
2022/09/03 05:37:32;;;;;;;;;;;;;;;10.96;100.00;101024.75;3057246;19;888;-47
2022/09/03 05:38:34;;;;;;;;;;;;;;;11.04;100.00;101027.84;3057414;19;1053;-47
2022/09/03 05:39:39;;;;;;;;;;;;;;;11.05;100.00;101024.25;3056718;19;1071;-47
2022/09/03 05:40:41;;;;;;;;;;;;;;;11.13;100.00;101026.47;3057385;19;1039;-48
2022/09/03 05:41:45;;;;;;;;;;;;;;;11.16;100.00;101031.66;3057197;19;894;-46
2022/09/03 05:42:47;;;;;;;;;;;;;;;11.24;100.00;101033.91;3057371;19;977;-46
2022/09/03 05:43:54;;;;;;;;;;;;;;;11.28;100.00;101027.44;3057934;19;1027;-48
2022/09/03 05:44:56;;;;;;;;;;;;;;;11.34;100.00;101024.44;3057412;19;841;-48
2022/09/03 05:46:01;;;;;;;;;;;;;;;11.38;100.00;101037.53;3057092;19;963;-49
2022/09/03 05:47:03;;;;;;;;;;;;;;;11.44;100.00;101033.66;3057172;19;1031;-49
2022/09/03 05:48:08;;;;;;;;;;;;;;;11.52;100.00;101034.09;3054293;19;1734;-47